マカオ の空港の天気 - METARとTAF

マカオ国際空港 ( VMMC / MFM ) - マカオ タイパ島
飛行場実況気象(Metar)
観測時間06/29 13:30 CST (06/29 05:30 UTC)
風向・風速東 3m/s
視程10km以上
天気現象
少しの雲 雲底高度 760m
気温31℃
湿度79%
気圧1002hPa
METARVMMC 290530Z 10005KT 040V150 9999 FEW025 31/27 Q1002 NOSIG
過去の天気等 Google飛行場航空写真 Wunderground天気予報

過去48時間のMETAR

飛行場予報(TAF)
発表時間: 6/29 13:00 CST (6/29 05:00 UTC)
予報対象時間: 29日14時 CST ~ 30日20時 CST
風向・風速東 4m/s
視程10km以上
少しの雲 雲底高度 760m
29日14時 CST ~ 29日18時 CST に一時的に
視程4500m
天気現象しゅう雨
30日6時 CST ~ 30日14時 CST に一時的に
視程3500m
天気現象しゅう雨
少しの積乱雲 雲底高度 300m
全天の4割程度の雲 雲底高度 610m
TAF VMMC 290500Z 2906/3012 10008KT 9999 FEW025
TEMPO 2906/2910 4500 SHRA
TEMPO 2922/3006 3500 SHRA FEW010CB SCT020